Mirangaba, Brazil
Current Conditions -  °F | °C
As of 10:00 PM on Monday 24 Nov 2014 (Local Time) from SBPL Reporting Station
Clear Clear  
Wind Chill: 86°   Ceiling: Unl
Heat Index: 89°   Visibility: 6mi
Dew Point: 68°   Wind: 9mph
Humidity: 55%   Direction: 180°S
Pressure: 29.94"   Gusts: NA
Location:  10.95°S, 40.57°W
Report Text: SBPL 250100Z 18008KT CAVOK 30/20 Q1014
Loading
Personal Weather Stations






























Interactive Weather Map New forecast layout! Learn more

10-Day Weather Forecast

Advertisements
Track Severe Weather on mobile